sensor_id;sensor_type;location;lat;lon;timestamp;P1;durP1;ratioP1;P2;durP2;ratioP2
32760;SDS011;19126;47.472;7.850;2023-12-14T00:01:13;0.55;;;0.55;;
32760;SDS011;19126;47.472;7.850;2023-12-14T00:03:42;0.68;;;0.60;;
32760;SDS011;19126;47.472;7.850;2023-12-14T00:06:10;0.55;;;0.40;;
32760;SDS011;19126;47.472;7.850;2023-12-14T00:08:37;1.60;;;0.40;;
32760;SDS011;19126;47.472;7.850;2023-12-14T00:11:05;0.65;;;0.40;;
32760;SDS011;19126;47.472;7.850;2023-12-14T00:13:33;3.00;;;0.40;;
32760;SDS011;19126;47.472;7.850;2023-12-14T00:16:01;0.30;;;0.30;;
32760;SDS011;19126;47.472;7.850;2023-12-14T00:18:29;0.40;;;0.40;;
32760;SDS011;19126;47.472;7.850;2023-12-14T00:20:58;0.90;;;0.50;;
32760;SDS011;19126;47.472;7.850;2023-12-14T00:23:25;0.75;;;0.40;;
32760;SDS011;19126;47.472;7.850;2023-12-14T00:25:52;1.15;;;0.50;;
32760;SDS011;19126;47.472;7.850;2023-12-14T00:28:20;1.08;;;0.73;;
32760;SDS011;19126;47.472;7.850;2023-12-14T00:30:47;1.35;;;0.60;;
32760;SDS011;19126;47.472;7.850;2023-12-14T00:33:14;0.80;;;0.60;;
32760;SDS011;19126;47.472;7.850;2023-12-14T00:35:42;0.40;;;0.40;;
32760;SDS011;19126;47.472;7.850;2023-12-14T00:38:10;0.50;;;0.50;;
32760;SDS011;19126;47.472;7.850;2023-12-14T00:40:39;1.45;;;0.50;;
32760;SDS011;19126;47.472;7.850;2023-12-14T00:43:07;0.50;;;0.43;;
32760;SDS011;19126;47.472;7.850;2023-12-14T00:45:34;0.73;;;0.40;;
32760;SDS011;19126;47.472;7.850;2023-12-14T00:48:03;0.90;;;0.40;;
32760;SDS011;19126;47.472;7.850;2023-12-14T00:50:31;1.55;;;0.40;;
32760;SDS011;19126;47.472;7.850;2023-12-14T00:52:58;0.60;;;0.43;;
32760;SDS011;19126;47.472;7.850;2023-12-14T00:55:26;0.90;;;0.40;;
32760;SDS011;19126;47.472;7.850;2023-12-14T00:57:54;0.68;;;0.40;;
32760;SDS011;19126;47.472;7.850;2023-12-14T01:00:21;0.40;;;0.40;;
32760;SDS011;19126;47.472;7.850;2023-12-14T01:02:49;0.50;;;0.50;;
32760;SDS011;19126;47.472;7.850;2023-12-14T01:05:16;0.75;;;0.32;;
32760;SDS011;19126;47.472;7.850;2023-12-14T01:07:43;0.35;;;0.30;;
32760;SDS011;19126;47.472;7.850;2023-12-14T01:10:11;0.60;;;0.47;;
32760;SDS011;19126;47.472;7.850;2023-12-14T01:12:39;6.15;;;0.55;;
32760;SDS011;19126;47.472;7.850;2023-12-14T01:15:07;1.00;;;0.63;;
32760;SDS011;19126;47.472;7.850;2023-12-14T01:17:35;0.45;;;0.40;;
32760;SDS011;19126;47.472;7.850;2023-12-14T01:20:04;0.30;;;0.30;;
32760;SDS011;19126;47.472;7.850;2023-12-14T01:22:33;0.35;;;0.35;;
32760;SDS011;19126;47.472;7.850;2023-12-14T01:25:00;0.47;;;0.47;;
32760;SDS011;19126;47.472;7.850;2023-12-14T01:27:27;0.55;;;0.50;;
32760;SDS011;19126;47.472;7.850;2023-12-14T01:29:56;0.47;;;0.40;;
32760;SDS011;19126;47.472;7.850;2023-12-14T01:32:23;0.70;;;0.40;;
32760;SDS011;19126;47.472;7.850;2023-12-14T01:34:51;0.47;;;0.47;;
32760;SDS011;19126;47.472;7.850;2023-12-14T01:37:18;1.17;;;0.60;;
32760;SDS011;19126;47.472;7.850;2023-12-14T01:39:45;0.90;;;0.40;;
32760;SDS011;19126;47.472;7.850;2023-12-14T01:42:13;0.65;;;0.40;;
32760;SDS011;19126;47.472;7.850;2023-12-14T01:44:40;0.30;;;0.30;;
32760;SDS011;19126;47.472;7.850;2023-12-14T01:47:09;0.30;;;0.30;;
32760;SDS011;19126;47.472;7.850;2023-12-14T01:49:36;1.15;;;0.40;;
32760;SDS011;19126;47.472;7.850;2023-12-14T01:52:04;0.73;;;0.50;;
32760;SDS011;19126;47.472;7.850;2023-12-14T01:54:32;1.02;;;0.73;;
32760;SDS011;19126;47.472;7.850;2023-12-14T01:56:59;0.30;;;0.30;;
32760;SDS011;19126;47.472;7.850;2023-12-14T01:59:26;0.38;;;0.38;;
32760;SDS011;19126;47.472;7.850;2023-12-14T02:01:54;0.38;;;0.38;;
32760;SDS011;19126;47.472;7.850;2023-12-14T02:04:24;0.50;;;0.50;;
32760;SDS011;19126;47.472;7.850;2023-12-14T02:06:52;1.48;;;0.50;;
32760;SDS011;19126;47.472;7.850;2023-12-14T02:09:19;0.77;;;0.60;;
32760;SDS011;19126;47.472;7.850;2023-12-14T02:11:46;1.08;;;0.50;;
32760;SDS011;19126;47.472;7.850;2023-12-14T02:14:14;0.55;;;0.50;;
32760;SDS011;19126;47.472;7.850;2023-12-14T02:16:41;0.75;;;0.50;;
32760;SDS011;19126;47.472;7.850;2023-12-14T02:19:08;3.75;;;0.68;;
32760;SDS011;19126;47.472;7.850;2023-12-14T02:21:37;0.75;;;0.75;;
32760;SDS011;19126;47.472;7.850;2023-12-14T02:24:05;0.50;;;0.50;;
32760;SDS011;19126;47.472;7.850;2023-12-14T02:26:33;0.73;;;0.50;;
32760;SDS011;19126;47.472;7.850;2023-12-14T02:29:00;0.47;;;0.47;;
32760;SDS011;19126;47.472;7.850;2023-12-14T02:31:27;1.65;;;0.68;;
32760;SDS011;19126;47.472;7.850;2023-12-14T02:33:55;0.63;;;0.63;;
32760;SDS011;19126;47.472;7.850;2023-12-14T02:36:22;1.30;;;0.70;;
32760;SDS011;19126;47.472;7.850;2023-12-14T02:38:49;1.27;;;0.80;;
32760;SDS011;19126;47.472;7.850;2023-12-14T02:41:18;3.13;;;0.68;;
32760;SDS011;19126;47.472;7.850;2023-12-14T02:43:45;1.42;;;0.80;;
32760;SDS011;19126;47.472;7.850;2023-12-14T02:46:13;2.58;;;0.75;;
32760;SDS011;19126;47.472;7.850;2023-12-14T02:48:40;1.00;;;0.70;;
32760;SDS011;19126;47.472;7.850;2023-12-14T02:51:11;0.80;;;0.63;;
32760;SDS011;19126;47.472;7.850;2023-12-14T02:53:40;1.58;;;0.85;;
32760;SDS011;19126;47.472;7.850;2023-12-14T02:56:09;1.58;;;0.77;;
32760;SDS011;19126;47.472;7.850;2023-12-14T02:58:38;4.90;;;0.80;;
32760;SDS011;19126;47.472;7.850;2023-12-14T03:01:06;0.70;;;0.70;;
32760;SDS011;19126;47.472;7.850;2023-12-14T03:03:33;1.52;;;0.70;;
32760;SDS011;19126;47.472;7.850;2023-12-14T03:06:00;1.63;;;0.80;;
32760;SDS011;19126;47.472;7.850;2023-12-14T03:08:27;1.90;;;0.80;;
32760;SDS011;19126;47.472;7.850;2023-12-14T03:10:55;1.80;;;0.70;;
32760;SDS011;19126;47.472;7.850;2023-12-14T03:13:22;1.05;;;0.85;;
32760;SDS011;19126;47.472;7.850;2023-12-14T03:15:51;1.60;;;0.80;;
32760;SDS011;19126;47.472;7.850;2023-12-14T03:18:18;1.05;;;0.82;;
32760;SDS011;19126;47.472;7.850;2023-12-14T03:20:45;4.38;;;1.00;;
32760;SDS011;19126;47.472;7.850;2023-12-14T03:23:13;0.80;;;0.80;;
32760;SDS011;19126;47.472;7.850;2023-12-14T03:25:40;0.98;;;0.88;;
32760;SDS011;19126;47.472;7.850;2023-12-14T03:28:08;1.30;;;0.70;;
32760;SDS011;19126;47.472;7.850;2023-12-14T03:30:35;4.78;;;0.80;;
32760;SDS011;19126;47.472;7.850;2023-12-14T03:33:03;1.80;;;0.77;;
32760;SDS011;19126;47.472;7.850;2023-12-14T03:35:32;0.80;;;0.80;;
32760;SDS011;19126;47.472;7.850;2023-12-14T03:38:01;0.80;;;0.80;;
32760;SDS011;19126;47.472;7.850;2023-12-14T03:40:29;0.75;;;0.75;;
32760;SDS011;19126;47.472;7.850;2023-12-14T03:42:56;1.00;;;0.90;;
32760;SDS011;19126;47.472;7.850;2023-12-14T03:45:24;1.33;;;0.80;;
32760;SDS011;19126;47.472;7.850;2023-12-14T03:47:51;1.20;;;0.90;;
32760;SDS011;19126;47.472;7.850;2023-12-14T03:50:20;0.90;;;0.70;;
32760;SDS011;19126;47.472;7.850;2023-12-14T03:52:47;3.28;;;1.05;;
32760;SDS011;19126;47.472;7.850;2023-12-14T03:55:14;1.13;;;1.00;;
32760;SDS011;19126;47.472;7.850;2023-12-14T03:57:41;1.48;;;1.10;;
32760;SDS011;19126;47.472;7.850;2023-12-14T04:00:09;1.58;;;1.10;;
32760;SDS011;19126;47.472;7.850;2023-12-14T04:02:38;2.30;;;1.55;;
32760;SDS011;19126;47.472;7.850;2023-12-14T04:05:06;3.72;;;1.70;;
32760;SDS011;19126;47.472;7.850;2023-12-14T04:07:36;3.85;;;1.58;;
32760;SDS011;19126;47.472;7.850;2023-12-14T04:10:05;2.72;;;1.52;;
32760;SDS011;19126;47.472;7.850;2023-12-14T04:12:34;1.15;;;0.98;;
32760;SDS011;19126;47.472;7.850;2023-12-14T04:15:01;3.90;;;1.55;;
32760;SDS011;19126;47.472;7.850;2023-12-14T04:17:30;1.75;;;1.17;;
32760;SDS011;19126;47.472;7.850;2023-12-14T04:19:57;2.03;;;1.20;;
32760;SDS011;19126;47.472;7.850;2023-12-14T04:22:25;1.98;;;1.45;;
32760;SDS011;19126;47.472;7.850;2023-12-14T04:24:54;1.60;;;1.50;;
32760;SDS011;19126;47.472;7.850;2023-12-14T04:27:21;1.05;;;1.00;;
32760;SDS011;19126;47.472;7.850;2023-12-14T04:29:52;1.60;;;1.20;;
32760;SDS011;19126;47.472;7.850;2023-12-14T04:32:19;3.47;;;1.60;;
32760;SDS011;19126;47.472;7.850;2023-12-14T04:34:46;2.08;;;1.25;;
32760;SDS011;19126;47.472;7.850;2023-12-14T04:37:13;1.52;;;0.98;;
32760;SDS011;19126;47.472;7.850;2023-12-14T04:39:41;1.48;;;1.10;;
32760;SDS011;19126;47.472;7.850;2023-12-14T04:42:11;3.58;;;1.40;;
32760;SDS011;19126;47.472;7.850;2023-12-14T04:44:38;3.03;;;1.42;;
32760;SDS011;19126;47.472;7.850;2023-12-14T04:47:05;4.78;;;1.20;;
32760;SDS011;19126;47.472;7.850;2023-12-14T04:49:33;1.42;;;1.27;;
32760;SDS011;19126;47.472;7.850;2023-12-14T04:52:01;1.70;;;1.40;;
32760;SDS011;19126;47.472;7.850;2023-12-14T04:54:28;1.88;;;1.35;;
32760;SDS011;19126;47.472;7.850;2023-12-14T04:56:55;1.45;;;1.20;;
32760;SDS011;19126;47.472;7.850;2023-12-14T04:59:24;3.80;;;1.60;;
32760;SDS011;19126;47.472;7.850;2023-12-14T05:01:51;4.35;;;3.20;;
32760;SDS011;19126;47.472;7.850;2023-12-14T05:04:18;14.48;;;7.40;;
32760;SDS011;19126;47.472;7.850;2023-12-14T05:06:46;10.70;;;7.10;;
32760;SDS011;19126;47.472;7.850;2023-12-14T05:09:13;10.95;;;7.22;;
32760;SDS011;19126;47.472;7.850;2023-12-14T05:11:40;10.45;;;6.80;;
32760;SDS011;19126;47.472;7.850;2023-12-14T05:14:08;7.72;;;5.32;;
32760;SDS011;19126;47.472;7.850;2023-12-14T05:16:37;9.65;;;6.22;;
32760;SDS011;19126;47.472;7.850;2023-12-14T05:19:04;2.67;;;2.38;;
32760;SDS011;19126;47.472;7.850;2023-12-14T05:21:31;6.07;;;2.72;;
32760;SDS011;19126;47.472;7.850;2023-12-14T05:23:59;4.20;;;3.05;;
32760;SDS011;19126;47.472;7.850;2023-12-14T05:26:26;2.92;;;2.63;;
32760;SDS011;19126;47.472;7.850;2023-12-14T05:28:53;5.40;;;2.35;;
32760;SDS011;19126;47.472;7.850;2023-12-14T05:31:21;4.80;;;2.45;;
32760;SDS011;19126;47.472;7.850;2023-12-14T05:33:49;3.67;;;2.65;;
32760;SDS011;19126;47.472;7.850;2023-12-14T05:36:16;2.88;;;2.47;;
32760;SDS011;19126;47.472;7.850;2023-12-14T05:38:44;3.30;;;2.65;;
32760;SDS011;19126;47.472;7.850;2023-12-14T05:41:11;4.95;;;3.25;;
32760;SDS011;19126;47.472;7.850;2023-12-14T05:43:39;3.45;;;3.15;;
32760;SDS011;19126;47.472;7.850;2023-12-14T05:46:06;6.20;;;3.60;;
32760;SDS011;19126;47.472;7.850;2023-12-14T05:48:33;5.97;;;3.10;;
32760;SDS011;19126;47.472;7.850;2023-12-14T05:51:03;7.32;;;3.60;;
32760;SDS011;19126;47.472;7.850;2023-12-14T05:53:31;5.80;;;3.42;;
32760;SDS011;19126;47.472;7.850;2023-12-14T05:56:01;4.57;;;3.75;;
32760;SDS011;19126;47.472;7.850;2023-12-14T05:58:29;7.18;;;3.83;;
32760;SDS011;19126;47.472;7.850;2023-12-14T06:00:56;4.95;;;3.78;;
32760;SDS011;19126;47.472;7.850;2023-12-14T06:03:24;5.25;;;3.92;;
32760;SDS011;19126;47.472;7.850;2023-12-14T06:05:51;7.70;;;4.03;;
32760;SDS011;19126;47.472;7.850;2023-12-14T06:08:20;9.60;;;4.30;;
32760;SDS011;19126;47.472;7.850;2023-12-14T06:10:47;7.82;;;3.30;;
32760;SDS011;19126;47.472;7.850;2023-12-14T06:13:14;5.20;;;3.53;;
32760;SDS011;19126;47.472;7.850;2023-12-14T06:15:41;5.53;;;4.38;;
32760;SDS011;19126;47.472;7.850;2023-12-14T06:18:09;4.82;;;3.75;;
32760;SDS011;19126;47.472;7.850;2023-12-14T06:20:36;6.03;;;3.70;;
32760;SDS011;19126;47.472;7.850;2023-12-14T06:23:03;6.95;;;3.85;;
32760;SDS011;19126;47.472;7.850;2023-12-14T06:25:32;7.28;;;4.15;;
32760;SDS011;19126;47.472;7.850;2023-12-14T06:27:59;5.13;;;3.58;;
32760;SDS011;19126;47.472;7.850;2023-12-14T06:30:26;5.85;;;4.10;;
32760;SDS011;19126;47.472;7.850;2023-12-14T06:32:53;5.85;;;4.05;;
32760;SDS011;19126;47.472;7.850;2023-12-14T06:35:21;11.48;;;4.05;;
32760;SDS011;19126;47.472;7.850;2023-12-14T06:37:48;6.32;;;4.20;;
32760;SDS011;19126;47.472;7.850;2023-12-14T06:40:15;4.20;;;3.63;;
32760;SDS011;19126;47.472;7.850;2023-12-14T06:42:45;4.97;;;3.53;;
32760;SDS011;19126;47.472;7.850;2023-12-14T06:45:15;7.78;;;3.78;;
32760;SDS011;19126;47.472;7.850;2023-12-14T06:47:42;5.82;;;3.80;;
32760;SDS011;19126;47.472;7.850;2023-12-14T06:50:11;5.93;;;4.10;;
32760;SDS011;19126;47.472;7.850;2023-12-14T06:52:39;5.47;;;3.85;;
32760;SDS011;19126;47.472;7.850;2023-12-14T06:55:07;8.13;;;3.92;;
32760;SDS011;19126;47.472;7.850;2023-12-14T06:57:35;5.82;;;3.60;;
32760;SDS011;19126;47.472;7.850;2023-12-14T07:00:04;5.97;;;3.78;;
32760;SDS011;19126;47.472;7.850;2023-12-14T07:02:33;4.13;;;3.53;;
32760;SDS011;19126;47.472;7.850;2023-12-14T07:05:00;7.38;;;3.78;;
32760;SDS011;19126;47.472;7.850;2023-12-14T07:07:28;8.63;;;4.03;;
32760;SDS011;19126;47.472;7.850;2023-12-14T07:09:55;8.05;;;4.32;;
32760;SDS011;19126;47.472;7.850;2023-12-14T07:12:22;6.32;;;4.20;;
32760;SDS011;19126;47.472;7.850;2023-12-14T07:14:49;4.82;;;3.70;;
32760;SDS011;19126;47.472;7.850;2023-12-14T07:17:18;5.85;;;4.32;;
32760;SDS011;19126;47.472;7.850;2023-12-14T07:19:45;7.35;;;3.85;;
32760;SDS011;19126;47.472;7.850;2023-12-14T07:22:12;7.47;;;4.50;;
32760;SDS011;19126;47.472;7.850;2023-12-14T07:24:40;7.97;;;5.00;;
32760;SDS011;19126;47.472;7.850;2023-12-14T07:27:08;6.53;;;4.15;;
32760;SDS011;19126;47.472;7.850;2023-12-14T07:29:35;7.18;;;4.70;;
32760;SDS011;19126;47.472;7.850;2023-12-14T07:32:02;6.45;;;5.18;;
32760;SDS011;19126;47.472;7.850;2023-12-14T07:34:31;5.63;;;4.00;;
32760;SDS011;19126;47.472;7.850;2023-12-14T07:36:59;8.02;;;4.38;;
32760;SDS011;19126;47.472;7.850;2023-12-14T07:39:26;6.15;;;4.93;;
32760;SDS011;19126;47.472;7.850;2023-12-14T07:41:53;7.70;;;4.88;;
32760;SDS011;19126;47.472;7.850;2023-12-14T07:44:21;8.50;;;4.75;;
32760;SDS011;19126;47.472;7.850;2023-12-14T07:46:50;8.65;;;4.68;;
32760;SDS011;19126;47.472;7.850;2023-12-14T07:49:17;7.10;;;5.07;;
32760;SDS011;19126;47.472;7.850;2023-12-14T07:51:46;8.63;;;5.05;;
32760;SDS011;19126;47.472;7.850;2023-12-14T07:54:14;9.27;;;5.53;;
32760;SDS011;19126;47.472;7.850;2023-12-14T07:56:41;8.07;;;5.15;;
32760;SDS011;19126;47.472;7.850;2023-12-14T07:59:08;7.53;;;5.07;;
32760;SDS011;19126;47.472;7.850;2023-12-14T08:01:36;9.00;;;5.35;;
32760;SDS011;19126;47.472;7.850;2023-12-14T08:04:03;10.52;;;4.90;;
32760;SDS011;19126;47.472;7.850;2023-12-14T08:06:30;7.57;;;5.07;;
32760;SDS011;19126;47.472;7.850;2023-12-14T08:08:59;9.18;;;5.50;;
32760;SDS011;19126;47.472;7.850;2023-12-14T08:11:27;13.10;;;5.57;;
32760;SDS011;19126;47.472;7.850;2023-12-14T08:13:54;9.13;;;5.07;;
32760;SDS011;19126;47.472;7.850;2023-12-14T08:16:21;8.73;;;5.25;;
32760;SDS011;19126;47.472;7.850;2023-12-14T08:18:48;7.85;;;5.20;;
32760;SDS011;19126;47.472;7.850;2023-12-14T08:21:15;10.55;;;4.97;;
32760;SDS011;19126;47.472;7.850;2023-12-14T08:23:43;5.78;;;4.70;;
32760;SDS011;19126;47.472;7.850;2023-12-14T08:26:12;7.07;;;4.85;;
32760;SDS011;19126;47.472;7.850;2023-12-14T08:28:40;8.00;;;5.05;;
32760;SDS011;19126;47.472;7.850;2023-12-14T08:31:07;10.43;;;5.18;;
32760;SDS011;19126;47.472;7.850;2023-12-14T08:33:37;9.20;;;5.47;;
32760;SDS011;19126;47.472;7.850;2023-12-14T08:36:04;7.85;;;5.57;;
32760;SDS011;19126;47.472;7.850;2023-12-14T08:38:32;6.13;;;4.72;;
32760;SDS011;19126;47.472;7.850;2023-12-14T08:40:59;6.53;;;4.07;;
32760;SDS011;19126;47.472;7.850;2023-12-14T08:43:28;6.25;;;4.45;;
32760;SDS011;19126;47.472;7.850;2023-12-14T08:45:55;5.55;;;4.60;;
32760;SDS011;19126;47.472;7.850;2023-12-14T08:48:23;5.38;;;4.75;;
32760;SDS011;19126;47.472;7.850;2023-12-14T08:50:50;5.53;;;4.50;;
32760;SDS011;19126;47.472;7.850;2023-12-14T08:53:20;7.53;;;5.20;;
32760;SDS011;19126;47.472;7.850;2023-12-14T08:55:47;7.07;;;4.68;;
32760;SDS011;19126;47.472;7.850;2023-12-14T08:58:15;5.88;;;4.78;;
32760;SDS011;19126;47.472;7.850;2023-12-14T09:00:44;5.95;;;4.00;;
32760;SDS011;19126;47.472;7.850;2023-12-14T09:03:11;5.00;;;4.30;;
32760;SDS011;19126;47.472;7.850;2023-12-14T09:05:39;7.65;;;4.18;;
32760;SDS011;19126;47.472;7.850;2023-12-14T09:08:08;4.95;;;4.28;;
32760;SDS011;19126;47.472;7.850;2023-12-14T09:10:35;6.45;;;4.40;;
32760;SDS011;19126;47.472;7.850;2023-12-14T09:13:02;6.25;;;4.25;;
32760;SDS011;19126;47.472;7.850;2023-12-14T09:15:30;5.85;;;4.07;;
32760;SDS011;19126;47.472;7.850;2023-12-14T09:18:00;5.63;;;4.45;;
32760;SDS011;19126;47.472;7.850;2023-12-14T09:20:27;5.03;;;3.53;;
32760;SDS011;19126;47.472;7.850;2023-12-14T09:22:55;3.88;;;3.45;;
32760;SDS011;19126;47.472;7.850;2023-12-14T09:25:22;5.43;;;3.85;;
32760;SDS011;19126;47.472;7.850;2023-12-14T09:27:49;7.10;;;4.15;;
32760;SDS011;19126;47.472;7.850;2023-12-14T09:30:16;5.30;;;3.38;;
32760;SDS011;19126;47.472;7.850;2023-12-14T09:32:44;9.00;;;4.20;;
32760;SDS011;19126;47.472;7.850;2023-12-14T09:35:12;10.52;;;3.40;;
32760;SDS011;19126;47.472;7.850;2023-12-14T09:37:40;5.75;;;4.03;;
32760;SDS011;19126;47.472;7.850;2023-12-14T09:40:08;9.32;;;3.88;;
32760;SDS011;19126;47.472;7.850;2023-12-14T09:42:37;4.75;;;3.40;;
32760;SDS011;19126;47.472;7.850;2023-12-14T09:45:06;4.45;;;3.17;;
32760;SDS011;19126;47.472;7.850;2023-12-14T09:47:34;5.85;;;2.90;;
32760;SDS011;19126;47.472;7.850;2023-12-14T09:50:02;4.80;;;3.10;;
32760;SDS011;19126;47.472;7.850;2023-12-14T09:52:32;3.63;;;3.20;;
32760;SDS011;19126;47.472;7.850;2023-12-14T09:54:59;5.63;;;3.30;;
32760;SDS011;19126;47.472;7.850;2023-12-14T09:57:29;3.67;;;2.90;;
32760;SDS011;19126;47.472;7.850;2023-12-14T09:59:56;9.02;;;3.03;;
32760;SDS011;19126;47.472;7.850;2023-12-14T10:02:24;2.80;;;2.53;;
32760;SDS011;19126;47.472;7.850;2023-12-14T10:04:52;3.55;;;2.95;;
32760;SDS011;19126;47.472;7.850;2023-12-14T10:07:20;4.30;;;2.90;;
32760;SDS011;19126;47.472;7.850;2023-12-14T10:09:50;4.47;;;2.65;;
32760;SDS011;19126;47.472;7.850;2023-12-14T10:12:18;2.63;;;2.38;;
32760;SDS011;19126;47.472;7.850;2023-12-14T10:14:47;4.50;;;2.45;;
32760;SDS011;19126;47.472;7.850;2023-12-14T10:17:26;2.72;;;2.38;;
32760;SDS011;19126;47.472;7.850;2023-12-14T10:19:57;3.78;;;2.80;;
32760;SDS011;19126;47.472;7.850;2023-12-14T10:22:28;4.97;;;2.28;;
32760;SDS011;19126;47.472;7.850;2023-12-14T10:24:59;3.03;;;2.35;;
32760;SDS011;19126;47.472;7.850;2023-12-14T10:27:26;4.80;;;1.90;;
32760;SDS011;19126;47.472;7.850;2023-12-14T10:29:55;2.33;;;2.03;;
32760;SDS011;19126;47.472;7.850;2023-12-14T10:32:22;2.70;;;2.15;;
32760;SDS011;19126;47.472;7.850;2023-12-14T10:34:50;2.65;;;2.10;;
32760;SDS011;19126;47.472;7.850;2023-12-14T10:37:17;3.97;;;1.55;;
32760;SDS011;19126;47.472;7.850;2023-12-14T10:39:47;3.55;;;1.55;;
32760;SDS011;19126;47.472;7.850;2023-12-14T10:42:19;2.42;;;1.70;;
32760;SDS011;19126;47.472;7.850;2023-12-14T10:44:53;1.58;;;1.42;;
32760;SDS011;19126;47.472;7.850;2023-12-14T10:47:20;1.73;;;1.63;;
32760;SDS011;19126;47.472;7.850;2023-12-14T10:49:50;1.92;;;1.75;;
32760;SDS011;19126;47.472;7.850;2023-12-14T10:52:17;6.35;;;1.98;;
32760;SDS011;19126;47.472;7.850;2023-12-14T10:54:48;1.75;;;1.63;;
32760;SDS011;19126;47.472;7.850;2023-12-14T10:57:20;2.03;;;1.70;;
32760;SDS011;19126;47.472;7.850;2023-12-14T10:59:48;2.00;;;1.70;;
32760;SDS011;19126;47.472;7.850;2023-12-14T11:02:15;1.23;;;1.20;;
32760;SDS011;19126;47.472;7.850;2023-12-14T11:04:56;2.15;;;1.95;;
32760;SDS011;19126;47.472;7.850;2023-12-14T11:07:43;2.08;;;1.88;;
32760;SDS011;19126;47.472;7.850;2023-12-14T11:10:15;2.65;;;1.48;;
32760;SDS011;19126;47.472;7.850;2023-12-14T11:12:59;3.20;;;1.73;;
32760;SDS011;19126;47.472;7.850;2023-12-14T11:15:28;1.52;;;1.40;;
32760;SDS011;19126;47.472;7.850;2023-12-14T11:20:50;2.50;;;1.80;;
32760;SDS011;19126;47.472;7.850;2023-12-14T11:23:32;4.68;;;1.80;;
32760;SDS011;19126;47.472;7.850;2023-12-14T11:26:04;3.83;;;1.57;;
32760;SDS011;19126;47.472;7.850;2023-12-14T11:28:36;2.40;;;1.40;;
32760;SDS011;19126;47.472;7.850;2023-12-14T11:31:09;1.50;;;1.40;;
32760;SDS011;19126;47.472;7.850;2023-12-14T11:33:37;3.20;;;1.80;;
32760;SDS011;19126;47.472;7.850;2023-12-14T11:36:04;3.35;;;1.73;;
32760;SDS011;19126;47.472;7.850;2023-12-14T11:38:33;3.17;;;2.33;;
32760;SDS011;19126;47.472;7.850;2023-12-14T11:41:01;4.07;;;2.20;;
32760;SDS011;19126;47.472;7.850;2023-12-14T11:43:29;1.40;;;1.30;;
32760;SDS011;19126;47.472;7.850;2023-12-14T11:46:06;1.58;;;1.48;;
32760;SDS011;19126;47.472;7.850;2023-12-14T11:48:33;1.80;;;1.70;;
32760;SDS011;19126;47.472;7.850;2023-12-14T11:51:00;2.20;;;2.00;;
32760;SDS011;19126;47.472;7.850;2023-12-14T11:53:29;1.35;;;1.25;;
32760;SDS011;19126;47.472;7.850;2023-12-14T11:55:58;1.60;;;1.50;;
32760;SDS011;19126;47.472;7.850;2023-12-14T11:58:27;3.88;;;1.60;;
32760;SDS011;19126;47.472;7.850;2023-12-14T12:00:55;1.90;;;1.70;;
32760;SDS011;19126;47.472;7.850;2023-12-14T12:03:23;1.60;;;1.50;;
32760;SDS011;19126;47.472;7.850;2023-12-14T12:05:51;2.05;;;1.60;;
32760;SDS011;19126;47.472;7.850;2023-12-14T12:08:19;3.40;;;1.70;;
32760;SDS011;19126;47.472;7.850;2023-12-14T12:10:47;1.65;;;1.40;;
32760;SDS011;19126;47.472;7.850;2023-12-14T12:13:16;1.17;;;1.08;;
32760;SDS011;19126;47.472;7.850;2023-12-14T12:15:46;2.05;;;1.40;;
32760;SDS011;19126;47.472;7.850;2023-12-14T12:18:15;1.92;;;1.25;;
32760;SDS011;19126;47.472;7.850;2023-12-14T12:20:45;1.40;;;1.30;;
32760;SDS011;19126;47.472;7.850;2023-12-14T12:23:12;2.75;;;1.40;;
32760;SDS011;19126;47.472;7.850;2023-12-14T12:25:41;1.50;;;1.40;;
32760;SDS011;19126;47.472;7.850;2023-12-14T12:28:08;1.70;;;1.55;;
32760;SDS011;19126;47.472;7.850;2023-12-14T12:30:36;1.50;;;1.40;;
32760;SDS011;19126;47.472;7.850;2023-12-14T12:33:03;2.75;;;1.45;;
32760;SDS011;19126;47.472;7.850;2023-12-14T12:35:30;2.38;;;1.63;;
32760;SDS011;19126;47.472;7.850;2023-12-14T12:38:00;2.75;;;1.50;;
32760;SDS011;19126;47.472;7.850;2023-12-14T12:40:28;2.70;;;2.08;;
32760;SDS011;19126;47.472;7.850;2023-12-14T12:42:58;1.73;;;1.55;;
32760;SDS011;19126;47.472;7.850;2023-12-14T12:45:26;2.88;;;1.55;;
32760;SDS011;19126;47.472;7.850;2023-12-14T12:47:54;1.92;;;1.33;;
32760;SDS011;19126;47.472;7.850;2023-12-14T12:50:21;2.80;;;1.52;;
32760;SDS011;19126;47.472;7.850;2023-12-14T12:52:48;2.67;;;1.90;;
32760;SDS011;19126;47.472;7.850;2023-12-14T12:55:17;4.20;;;2.63;;
32760;SDS011;19126;47.472;7.850;2023-12-14T12:57:45;2.20;;;2.00;;
32760;SDS011;19126;47.472;7.850;2023-12-14T13:00:12;13.77;;;6.20;;
32760;SDS011;19126;47.472;7.850;2023-12-14T13:02:41;10.75;;;4.57;;
32760;SDS011;19126;47.472;7.850;2023-12-14T13:05:11;4.18;;;1.85;;
32760;SDS011;19126;47.472;7.850;2023-12-14T13:07:38;2.00;;;1.83;;
32760;SDS011;19126;47.472;7.850;2023-12-14T13:10:10;1.70;;;1.60;;
32760;SDS011;19126;47.472;7.850;2023-12-14T13:12:39;2.85;;;2.00;;
32760;SDS011;19126;47.472;7.850;2023-12-14T13:15:06;2.08;;;1.85;;
32760;SDS011;19126;47.472;7.850;2023-12-14T13:17:35;1.65;;;1.55;;
32760;SDS011;19126;47.472;7.850;2023-12-14T13:20:02;1.80;;;1.65;;
32760;SDS011;19126;47.472;7.850;2023-12-14T13:22:32;4.20;;;2.00;;
32760;SDS011;19126;47.472;7.850;2023-12-14T13:24:59;6.25;;;1.67;;
32760;SDS011;19126;47.472;7.850;2023-12-14T13:27:28;1.98;;;1.77;;
32760;SDS011;19126;47.472;7.850;2023-12-14T13:29:56;4.90;;;3.00;;
32760;SDS011;19126;47.472;7.850;2023-12-14T13:32:24;4.35;;;2.58;;
32760;SDS011;19126;47.472;7.850;2023-12-14T13:34:51;3.20;;;2.13;;
32760;SDS011;19126;47.472;7.850;2023-12-14T13:37:18;2.20;;;2.00;;
32760;SDS011;19126;47.472;7.850;2023-12-14T13:39:46;3.67;;;2.70;;
32760;SDS011;19126;47.472;7.850;2023-12-14T13:42:14;2.50;;;2.20;;
32760;SDS011;19126;47.472;7.850;2023-12-14T13:44:41;1.77;;;1.60;;
32760;SDS011;19126;47.472;7.850;2023-12-14T13:47:10;3.88;;;1.70;;
32760;SDS011;19126;47.472;7.850;2023-12-14T13:49:37;2.22;;;2.00;;
32760;SDS011;19126;47.472;7.850;2023-12-14T13:52:04;2.08;;;1.88;;
32760;SDS011;19126;47.472;7.850;2023-12-14T13:54:31;3.28;;;2.15;;
32760;SDS011;19126;47.472;7.850;2023-12-14T13:56:59;2.25;;;2.05;;
32760;SDS011;19126;47.472;7.850;2023-12-14T13:59:26;2.42;;;2.10;;
32760;SDS011;19126;47.472;7.850;2023-12-14T14:01:53;2.45;;;1.98;;
32760;SDS011;19126;47.472;7.850;2023-12-14T14:04:22;1.60;;;1.50;;
32760;SDS011;19126;47.472;7.850;2023-12-14T14:06:49;2.40;;;1.80;;
32760;SDS011;19126;47.472;7.850;2023-12-14T14:09:17;3.00;;;2.53;;
32760;SDS011;19126;47.472;7.850;2023-12-14T14:11:44;2.50;;;1.80;;
32760;SDS011;19126;47.472;7.850;2023-12-14T14:14:13;1.92;;;1.63;;
32760;SDS011;19126;47.472;7.850;2023-12-14T14:16:40;2.50;;;1.60;;
32760;SDS011;19126;47.472;7.850;2023-12-14T14:19:08;3.25;;;1.85;;
32760;SDS011;19126;47.472;7.850;2023-12-14T14:21:36;1.80;;;1.60;;
32760;SDS011;19126;47.472;7.850;2023-12-14T14:24:04;6.53;;;1.30;;
32760;SDS011;19126;47.472;7.850;2023-12-14T14:26:31;1.98;;;1.60;;
32760;SDS011;19126;47.472;7.850;2023-12-14T14:28:59;1.63;;;1.52;;
32760;SDS011;19126;47.472;7.850;2023-12-14T14:31:27;2.65;;;1.55;;
32760;SDS011;19126;47.472;7.850;2023-12-14T14:33:57;1.52;;;1.33;;
32760;SDS011;19126;47.472;7.850;2023-12-14T14:36:25;3.05;;;2.05;;
32760;SDS011;19126;47.472;7.850;2023-12-14T14:38:53;1.75;;;1.50;;
32760;SDS011;19126;47.472;7.850;2023-12-14T14:41:22;1.73;;;1.63;;
32760;SDS011;19126;47.472;7.850;2023-12-14T14:43:49;2.25;;;1.70;;
32760;SDS011;19126;47.472;7.850;2023-12-14T14:46:16;2.22;;;1.70;;
32760;SDS011;19126;47.472;7.850;2023-12-14T14:48:44;3.08;;;1.77;;
32760;SDS011;19126;47.472;7.850;2023-12-14T14:51:11;3.40;;;2.20;;
32760;SDS011;19126;47.472;7.850;2023-12-14T14:53:38;2.55;;;2.08;;
32760;SDS011;19126;47.472;7.850;2023-12-14T14:56:09;2.13;;;1.40;;